createdAt,value
2023-07-06T00:01:25.025Z,94088.13
2023-07-06T00:03:52.174Z,94082.47
2023-07-06T00:06:19.114Z,94081.13
2023-07-06T00:08:45.490Z,94083.88
2023-07-06T00:11:11.907Z,94081.84
2023-07-06T00:13:40.676Z,94076.53
2023-07-06T00:16:07.865Z,94071.38
2023-07-06T00:18:34.283Z,94070.75
2023-07-06T00:21:00.843Z,94067.56
2023-07-06T00:23:28.032Z,94062.88
2023-07-06T00:25:54.535Z,94050.44
2023-07-06T00:28:25.845Z,94046.31
2023-07-06T00:30:53.140Z,94052.03
2023-07-06T00:33:20.093Z,94042.53
2023-07-06T00:35:46.965Z,94042.31
2023-07-06T00:38:15.421Z,94037.41
2023-07-06T00:40:43.151Z,94039.91
2023-07-06T00:43:10.586Z,94040.78
2023-07-06T00:45:38.449Z,94045.47
2023-07-06T00:48:13.861Z,94053.38
2023-07-06T00:50:40.273Z,94057.75
2023-07-06T00:53:14.210Z,94063.91
2023-07-06T00:55:43.465Z,94064.94
2023-07-06T00:58:19.459Z,94060.72
2023-07-06T01:00:48.852Z,94050.28
2023-07-06T01:03:20.770Z,94047.88
2023-07-06T01:05:52.315Z,94046.41
2023-07-06T01:08:20.891Z,94047.69
2023-07-06T01:10:48.242Z,94043.44
2023-07-06T01:13:14.850Z,94045.19
2023-07-06T01:15:49.723Z,94040.94
2023-07-06T01:18:22.188Z,94047.47
2023-07-06T01:20:55.063Z,94043.59
2023-07-06T01:23:44.423Z,94037.75
2023-07-06T01:26:19.304Z,94034.91
2023-07-06T01:29:04.218Z,94034.53
2023-07-06T01:31:36.424Z,94027.22
2023-07-06T01:34:03.607Z,94028.84
2023-07-06T01:36:39.191Z,94014.22
2023-07-06T01:39:16.991Z,94018.63
2023-07-06T01:41:43.491Z,94020.16
2023-07-06T01:44:11.354Z,94021.41
2023-07-06T01:46:38.104Z,94026.66
2023-07-06T01:49:06.240Z,94023.81
2023-07-06T01:51:51.142Z,94018.06
2023-07-06T01:54:21.081Z,94025.50
2023-07-06T01:57:05.247Z,94023.59
2023-07-06T01:59:33.349Z,94026.16
2023-07-06T02:02:02.427Z,94023.00
2023-07-06T02:04:31.810Z,94021.28
2023-07-06T02:07:01.478Z,94022.72
2023-07-06T02:09:27.969Z,94026.50
2023-07-06T02:11:54.440Z,94031.41
2023-07-06T02:14:21.308Z,94031.50
2023-07-06T02:16:52.003Z,94033.16
2023-07-06T02:19:24.785Z,94029.59
2023-07-06T02:21:51.527Z,94034.47
2023-07-06T02:24:18.936Z,94020.38
2023-07-06T02:26:45.992Z,94029.25
2023-07-06T02:29:13.364Z,94023.25
2023-07-06T02:31:39.716Z,94037.81
2023-07-06T02:34:06.056Z,94031.78
2023-07-06T02:36:33.446Z,94035.84
2023-07-06T02:39:00.655Z,94041.91
2023-07-06T02:41:26.980Z,94035.06
2023-07-06T02:43:54.038Z,94043.34
2023-07-06T02:46:21.179Z,94040.56
2023-07-06T02:48:47.695Z,94044.75
2023-07-06T02:51:14.472Z,94041.16
2023-07-06T02:53:40.815Z,94041.53
2023-07-06T02:56:07.165Z,94033.09
2023-07-06T02:58:35.435Z,94036.94
2023-07-06T03:01:02.169Z,94032.31
2023-07-06T03:03:28.500Z,94036.72
2023-07-06T03:05:55.126Z,94033.50
2023-07-06T03:08:21.693Z,94029.66
2023-07-06T03:10:48.615Z,94029.88
2023-07-06T03:13:15.859Z,94029.50
2023-07-06T03:15:42.786Z,94029.53
2023-07-06T03:18:09.584Z,94029.94
2023-07-06T03:20:38.992Z,94028.34
2023-07-06T03:23:05.333Z,94025.72
2023-07-06T03:25:31.709Z,94026.28
2023-07-06T03:27:58.117Z,94021.84
2023-07-06T03:30:28.202Z,94026.31
2023-07-06T03:32:56.064Z,94031.78
2023-07-06T03:35:23.437Z,94017.88
2023-07-06T03:37:49.847Z,94017.88
2023-07-06T03:40:16.785Z,94020.31
2023-07-06T03:42:44.896Z,94020.31
2023-07-06T03:45:11.891Z,94022.34
2023-07-06T03:47:43.476Z,94035.25
2023-07-06T03:50:15.810Z,94036.84
2023-07-06T03:52:43.238Z,94035.03
2023-07-06T03:55:13.343Z,94038.44
2023-07-06T03:57:50.855Z,94045.31
2023-07-06T04:00:25.846Z,94042.06
2023-07-06T04:02:53.434Z,94050.56
2023-07-06T04:05:25.087Z,94043.69
2023-07-06T04:07:53.703Z,94045.31
2023-07-06T04:10:21.249Z,94042.88
2023-07-06T04:12:49.335Z,94050.94
2023-07-06T04:15:18.532Z,94050.13
2023-07-06T04:17:49.040Z,94056.53
2023-07-06T04:20:20.110Z,94054.91
2023-07-06T04:22:48.291Z,94062.06
2023-07-06T04:25:16.161Z,94059.69
2023-07-06T04:27:43.813Z,94065.31
2023-07-06T04:30:11.609Z,94067.31
2023-07-06T04:32:38.305Z,94069.28
2023-07-06T04:35:04.986Z,94061.13
2023-07-06T04:37:32.742Z,94058.25
2023-07-06T04:40:12.618Z,94051.28
2023-07-06T04:42:51.815Z,94050.28
2023-07-06T04:45:19.997Z,94057.38
2023-07-06T04:47:46.910Z,94051.22
2023-07-06T04:50:18.611Z,94059.31
2023-07-06T04:52:46.841Z,94057.56
2023-07-06T04:55:13.729Z,94050.97
2023-07-06T04:57:40.543Z,94044.88
2023-07-06T05:00:14.517Z,94046.63
2023-07-06T05:02:48.258Z,94040.94
2023-07-06T05:05:14.735Z,94045.78
2023-07-06T05:07:42.776Z,94040.41
2023-07-06T05:10:09.708Z,94043.22
2023-07-06T05:12:36.764Z,94047.78
2023-07-06T05:15:03.819Z,94041.63
2023-07-06T05:17:30.167Z,94040.25
2023-07-06T05:19:57.007Z,94042.88
2023-07-06T05:22:25.080Z,94047.25
2023-07-06T05:24:51.553Z,94046.75
2023-07-06T05:27:18.528Z,94047.56
2023-07-06T05:29:44.860Z,94040.47
2023-07-06T05:32:11.475Z,94037.91
2023-07-06T05:34:37.838Z,94032.34
2023-07-06T05:37:04.339Z,94037.03
2023-07-06T05:39:30.821Z,94034.09
2023-07-06T05:41:57.233Z,94037.47
2023-07-06T05:44:23.613Z,94038.59
2023-07-06T05:46:50.041Z,94047.59
2023-07-06T05:49:16.486Z,94039.84
2023-07-06T05:51:42.868Z,94044.19
2023-07-06T05:54:09.214Z,94044.47
2023-07-06T05:56:37.604Z,94044.47
2023-07-06T05:59:05.242Z,94041.50
2023-07-06T06:01:33.355Z,94048.84
2023-07-06T06:03:59.889Z,94047.72
2023-07-06T06:06:27.963Z,93965.63
2023-07-06T06:08:54.815Z,94062.72
2023-07-06T06:11:22.196Z,94059.16
2023-07-06T06:13:50.436Z,94053.91
2023-07-06T06:16:17.211Z,94065.13
2023-07-06T06:18:45.235Z,94059.41
2023-07-06T06:21:12.020Z,94067.81
2023-07-06T06:23:38.365Z,94066.16
2023-07-06T06:26:04.923Z,94067.41
2023-07-06T06:28:31.365Z,94069.16
2023-07-06T06:30:57.808Z,94065.84
2023-07-06T06:33:24.150Z,94060.31
2023-07-06T06:35:51.808Z,94062.81
2023-07-06T06:38:18.732Z,94068.06
2023-07-06T06:40:45.780Z,94065.41
2023-07-06T06:43:12.233Z,94056.56
2023-07-06T06:45:40.484Z,94060.41
2023-07-06T06:48:07.268Z,94062.97
2023-07-06T06:50:34.180Z,94063.75
2023-07-06T06:53:00.728Z,94063.72
2023-07-06T06:55:28.176Z,94063.50
2023-07-06T06:57:54.554Z,94054.47
2023-07-06T07:00:21.023Z,94057.63
2023-07-06T07:02:47.989Z,94052.50
2023-07-06T07:05:16.525Z,94059.28
2023-07-06T07:07:43.132Z,94057.88
2023-07-06T07:10:10.880Z,94056.19
2023-07-06T07:12:38.804Z,94056.19
2023-07-06T07:15:05.761Z,94054.25
2023-07-06T07:17:32.118Z,94045.38
2023-07-06T07:19:58.897Z,94046.75
2023-07-06T07:22:25.471Z,94049.47
2023-07-06T07:24:52.032Z,94047.13
2023-07-06T07:27:18.429Z,94046.81
2023-07-06T07:29:44.775Z,94049.78
2023-07-06T07:32:11.245Z,94040.06
2023-07-06T07:34:37.609Z,94041.66
2023-07-06T07:37:04.321Z,94048.22
2023-07-06T07:39:31.573Z,94041.97
2023-07-06T07:41:58.525Z,94043.09
2023-07-06T07:44:29.156Z,94044.38
2023-07-06T07:46:55.508Z,94028.47
2023-07-06T07:49:21.890Z,94035.84
2023-07-06T07:51:48.249Z,94040.59
2023-07-06T07:54:14.596Z,94039.13
2023-07-06T07:56:43.970Z,94034.50
2023-07-06T07:59:10.340Z,94034.25
2023-07-06T08:01:36.896Z,94035.75
2023-07-06T08:04:03.972Z,94030.41
2023-07-06T08:06:30.719Z,94037.06
2023-07-06T08:08:57.528Z,94037.06
2023-07-06T08:11:25.104Z,94044.28
2023-07-06T08:13:52.974Z,94049.03
2023-07-06T08:16:21.286Z,94051.63
2023-07-06T08:18:49.782Z,94048.25
2023-07-06T08:21:32.830Z,94056.28
2023-07-06T08:24:04.873Z,94058.00
2023-07-06T08:26:32.703Z,94060.38
2023-07-06T08:28:59.296Z,94059.28
2023-07-06T08:31:26.087Z,94059.81
2023-07-06T08:33:52.522Z,94057.19
2023-07-06T08:36:21.609Z,94055.47
2023-07-06T08:38:48.069Z,94053.69
2023-07-06T08:41:31.035Z,94065.03
2023-07-06T08:44:02.087Z,94056.06
2023-07-06T08:46:31.174Z,94058.88
2023-07-06T08:48:57.622Z,94061.41
2023-07-06T08:51:35.433Z,94064.69
2023-07-06T08:54:02.875Z,94055.88
2023-07-06T08:56:31.361Z,94061.59
2023-07-06T08:58:58.846Z,94069.09
2023-07-06T09:01:25.552Z,94068.66
2023-07-06T09:04:00.306Z,94065.06
2023-07-06T09:06:27.992Z,94067.69
2023-07-06T09:08:56.221Z,94065.50
2023-07-06T09:11:24.062Z,94061.84
2023-07-06T09:13:51.979Z,94062.28
2023-07-06T09:16:20.803Z,94057.59
2023-07-06T09:18:53.884Z,94064.50
2023-07-06T09:21:26.417Z,94065.44
2023-07-06T09:23:53.087Z,94058.09
2023-07-06T09:26:32.845Z,94064.31
2023-07-06T09:29:26.112Z,94066.94
2023-07-06T09:32:08.844Z,94067.84
2023-07-06T09:34:35.966Z,94069.19
2023-07-06T09:37:03.970Z,94063.78
2023-07-06T09:39:30.341Z,94062.78
2023-07-06T09:41:58.883Z,94059.06
2023-07-06T09:44:27.694Z,94056.91
2023-07-06T09:46:56.904Z,94060.56
2023-07-06T09:49:27.665Z,94054.25
2023-07-06T09:52:01.035Z,94059.25
2023-07-06T09:54:31.945Z,94057.22
2023-07-06T09:56:58.325Z,94051.94
2023-07-06T09:59:24.754Z,94048.19
2023-07-06T10:01:52.280Z,94059.34
2023-07-06T10:04:21.435Z,94052.97
2023-07-06T10:06:57.546Z,94056.75
2023-07-06T10:09:29.792Z,94047.19
2023-07-06T10:11:58.361Z,94053.03
2023-07-06T10:14:30.516Z,94037.59
2023-07-06T10:17:19.336Z,94053.03
2023-07-06T10:20:04.940Z,94045.56
2023-07-06T10:22:44.464Z,94050.38
2023-07-06T10:25:20.348Z,94055.16
2023-07-06T10:27:49.394Z,94056.22
2023-07-06T10:30:26.397Z,94048.75
2023-07-06T10:32:54.668Z,94045.31
2023-07-06T10:35:24.097Z,94041.31
2023-07-06T10:37:50.986Z,94042.91
2023-07-06T10:40:21.436Z,94043.97
2023-07-06T10:43:07.767Z,94045.31
2023-07-06T10:45:34.247Z,94049.84
2023-07-06T10:48:17.472Z,94045.31
2023-07-06T10:50:45.991Z,94039.75
2023-07-06T10:53:22.790Z,94041.88
2023-07-06T10:59:16.321Z,94032.78
2023-07-06T11:01:46.395Z,94032.47
2023-07-06T11:04:32.959Z,94032.72
2023-07-06T11:06:59.663Z,94030.13
2023-07-06T11:09:26.337Z,94031.59
2023-07-06T11:11:52.822Z,94034.34
2023-07-06T11:14:37.528Z,94032.94
2023-07-06T11:17:11.702Z,94026.69
2023-07-06T11:19:42.227Z,94031.50
2023-07-06T11:22:12.483Z,94041.56
2023-07-06T11:24:42.411Z,94041.31
2023-07-06T11:27:24.426Z,94040.38
2023-07-06T11:29:52.307Z,94035.81
2023-07-06T11:32:28.010Z,94040.00
2023-07-06T11:35:10.687Z,94030.47
2023-07-06T11:37:57.826Z,94031.84
2023-07-06T11:40:24.461Z,94031.59
2023-07-06T11:43:10.809Z,94032.09
2023-07-06T11:45:49.482Z,94029.47
2023-07-06T11:48:19.985Z,94039.53
2023-07-06T11:50:48.013Z,94033.03
2023-07-06T11:53:33.277Z,94033.25
2023-07-06T11:56:09.524Z,94031.41
2023-07-06T11:58:54.890Z,94031.44
2023-07-06T12:01:46.941Z,94023.28
2023-07-06T12:04:22.664Z,94031.84
2023-07-06T12:06:57.861Z,94024.06
2023-07-06T12:09:31.654Z,94025.81
2023-07-06T12:12:14.072Z,94024.22
2023-07-06T12:14:40.507Z,94021.00
2023-07-06T12:17:07.701Z,94019.78
2023-07-06T12:19:38.379Z,94013.03
2023-07-06T12:22:05.897Z,94009.88
2023-07-06T12:24:34.326Z,94015.56
2023-07-06T12:27:04.544Z,94011.31
2023-07-06T12:29:32.708Z,94012.84
2023-07-06T12:32:14.352Z,94014.44
2023-07-06T12:34:45.364Z,94016.84
2023-07-06T12:37:18.224Z,94014.25
2023-07-06T12:39:48.850Z,94013.69
2023-07-06T12:42:18.712Z,94015.59
2023-07-06T12:44:52.160Z,94013.00
2023-07-06T12:47:34.090Z,94007.31
2023-07-06T12:50:01.519Z,94007.56
2023-07-06T12:52:30.676Z,94005.88
2023-07-06T12:54:57.694Z,94006.66
2023-07-06T12:57:37.852Z,94004.94
2023-07-06T13:00:14.574Z,94011.31
2023-07-06T13:02:53.458Z,93995.53
2023-07-06T13:05:23.725Z,94000.19
2023-07-06T13:07:53.950Z,93989.41
2023-07-06T13:10:22.503Z,93994.06
2023-07-06T13:12:50.163Z,93992.81
2023-07-06T13:15:22.613Z,93986.22
2023-07-06T13:17:50.662Z,93980.63
2023-07-06T13:20:17.501Z,93987.31
2023-07-06T13:22:44.805Z,93984.63
2023-07-06T13:25:19.627Z,93976.34
2023-07-06T13:27:47.040Z,93976.84
2023-07-06T13:30:13.612Z,93984.28
2023-07-06T13:32:43.916Z,93972.91
2023-07-06T13:35:10.664Z,93974.38
2023-07-06T13:37:42.094Z,93975.09
2023-07-06T13:40:16.241Z,93973.34
2023-07-06T13:42:51.803Z,93968.81
2023-07-06T13:45:19.515Z,93967.34
2023-07-06T13:47:53.625Z,93968.81
2023-07-06T13:50:21.207Z,93970.03
2023-07-06T13:52:47.794Z,93959.13
2023-07-06T13:55:21.166Z,93965.13
2023-07-06T13:57:47.579Z,93962.31
2023-07-06T14:00:15.760Z,93972.06
2023-07-06T14:02:45.730Z,93971.81
2023-07-06T14:05:23.901Z,93957.91
2023-07-06T14:07:50.823Z,93963.28
2023-07-06T14:10:18.833Z,93965.88
2023-07-06T14:12:49.320Z,93970.50
2023-07-06T14:15:19.347Z,93970.06
2023-07-06T14:17:46.493Z,93970.63
2023-07-06T14:20:13.919Z,93968.13
2023-07-06T14:22:40.416Z,93974.84
2023-07-06T14:25:26.633Z,93979.69
2023-07-06T14:27:54.376Z,93976.53
2023-07-06T14:30:23.150Z,93979.25
2023-07-06T14:32:51.524Z,93976.72
2023-07-06T14:35:20.465Z,93977.16
2023-07-06T14:37:47.552Z,93976.56
2023-07-06T14:40:14.269Z,93974.22
2023-07-06T14:42:41.766Z,93975.56
2023-07-06T14:45:08.545Z,93980.63
2023-07-06T14:47:35.087Z,93962.09
2023-07-06T14:50:01.796Z,93968.00
2023-07-06T14:52:29.101Z,93966.03
2023-07-06T14:54:55.616Z,93963.91
2023-07-06T14:57:22.139Z,93968.75
2023-07-06T14:59:48.561Z,93961.66
2023-07-06T15:02:14.989Z,93968.25
2023-07-06T15:04:48.045Z,93962.97
2023-07-06T15:07:14.582Z,93967.13
2023-07-06T15:09:41.639Z,93967.47
2023-07-06T15:12:08.405Z,93960.97
2023-07-06T15:14:34.915Z,93962.66
2023-07-06T15:17:04.238Z,93953.97
2023-07-06T15:19:31.055Z,93956.50
2023-07-06T15:21:57.482Z,93960.66
2023-07-06T15:24:23.956Z,93956.41
2023-07-06T15:26:51.032Z,93955.47
2023-07-06T15:29:19.577Z,93956.47
2023-07-06T15:31:47.381Z,93955.16
2023-07-06T15:34:14.006Z,93955.97
2023-07-06T15:36:40.588Z,93954.16
2023-07-06T15:39:07.416Z,93953.59
2023-07-06T15:41:34.102Z,93940.63
2023-07-06T15:44:01.132Z,93945.09
2023-07-06T15:46:27.807Z,93952.19
2023-07-06T15:48:54.244Z,93946.25
2023-07-06T15:51:20.609Z,93947.56
2023-07-06T15:53:47.090Z,93949.91
2023-07-06T15:56:14.520Z,93942.38
2023-07-06T15:58:40.857Z,93954.09
2023-07-06T16:01:07.822Z,93948.16
2023-07-06T16:03:35.574Z,93949.53
2023-07-06T16:06:02.013Z,93954.09
2023-07-06T16:08:28.366Z,93957.63
2023-07-06T16:10:54.782Z,93953.66
2023-07-06T16:13:21.342Z,93948.31
2023-07-06T16:15:48.374Z,93952.53
2023-07-06T16:18:14.816Z,93952.94
2023-07-06T16:20:49.989Z,93955.28
2023-07-06T16:23:16.404Z,93955.50
2023-07-06T16:25:42.776Z,93952.50
2023-07-06T16:28:09.110Z,93959.84
2023-07-06T16:30:35.493Z,93955.28
2023-07-06T16:33:02.026Z,93958.03
2023-07-06T16:35:28.480Z,93961.13
2023-07-06T16:37:54.997Z,93965.78
2023-07-06T16:40:21.415Z,93970.28
2023-07-06T16:42:47.780Z,93961.75
2023-07-06T16:45:17.331Z,93973.38
2023-07-06T16:47:43.849Z,93968.91
2023-07-06T16:50:10.400Z,93973.66
2023-07-06T16:52:37.925Z,93973.44
2023-07-06T16:55:04.402Z,93975.19
2023-07-06T16:57:30.792Z,93969.97
2023-07-06T16:59:57.190Z,93980.78
2023-07-06T17:02:24.630Z,93978.59
2023-07-06T17:04:52.019Z,93989.84
2023-07-06T17:07:18.449Z,93991.69
2023-07-06T17:09:44.895Z,93985.06
2023-07-06T17:12:13.467Z,93993.38
2023-07-06T17:14:41.932Z,93980.97
2023-07-06T17:17:09.335Z,93991.91
2023-07-06T17:19:35.698Z,93992.44
2023-07-06T17:22:02.044Z,93992.16
2023-07-06T17:24:29.190Z,93997.16
2023-07-06T17:26:56.570Z,93991.53
2023-07-06T17:29:22.924Z,93992.38
2023-07-06T17:31:49.313Z,93995.56
2023-07-06T17:34:15.726Z,93998.97
2023-07-06T17:36:43.142Z,94000.91
2023-07-06T17:39:10.557Z,94003.75
2023-07-06T17:41:37.089Z,94001.81
2023-07-06T17:44:04.005Z,94004.41
2023-07-06T17:46:30.410Z,94007.94
2023-07-06T17:48:56.875Z,94002.78
2023-07-06T17:51:23.299Z,94007.34
2023-07-06T17:53:49.682Z,94007.00
2023-07-06T17:56:16.146Z,94010.44
2023-07-06T17:58:42.535Z,94009.81
2023-07-06T18:01:08.922Z,94010.03
2023-07-06T18:03:40.398Z,94010.81
2023-07-06T18:06:06.983Z,94014.25
2023-07-06T18:08:44.403Z,94015.66
2023-07-06T18:11:16.004Z,94009.31
2023-07-06T18:13:43.452Z,94016.50
2023-07-06T18:16:10.052Z,94013.97
2023-07-06T18:18:38.564Z,94018.84
2023-07-06T18:21:06.026Z,94021.34
2023-07-06T18:23:32.439Z,94022.97
2023-07-06T18:26:02.177Z,94023.81
2023-07-06T18:28:33.493Z,94011.22
2023-07-06T18:31:17.508Z,94023.25
2023-07-06T18:33:43.871Z,94027.09
2023-07-06T18:36:16.431Z,94019.22
2023-07-06T18:38:42.911Z,94017.16
2023-07-06T18:41:11.369Z,94021.22
2023-07-06T18:43:41.081Z,94026.59
2023-07-06T18:46:07.495Z,94016.84
2023-07-06T18:48:36.706Z,94026.53
2023-07-06T18:51:05.830Z,94022.84
2023-07-06T18:53:44.627Z,94022.31
2023-07-06T18:56:18.814Z,94029.91
2023-07-06T18:58:45.293Z,94027.81
2023-07-06T19:01:12.281Z,94039.28
2023-07-06T19:03:41.921Z,94034.78
2023-07-06T19:06:16.785Z,94031.03
2023-07-06T19:08:44.697Z,94042.22
2023-07-06T19:27:22.384Z,94054.13
2023-07-06T19:29:49.964Z,94054.59
2023-07-06T19:32:17.798Z,94063.13
2023-07-06T19:34:44.494Z,94071.13
2023-07-06T19:37:10.927Z,94077.44
2023-07-06T19:39:38.423Z,94081.41
2023-07-06T19:42:04.952Z,94084.31
2023-07-06T19:44:31.319Z,94087.66
2023-07-06T19:46:57.710Z,94090.78
2023-07-06T19:49:24.109Z,94089.84
2023-07-06T19:51:50.512Z,94089.84
2023-07-06T19:54:18.628Z,94094.09
2023-07-06T19:56:44.986Z,94101.41
2023-07-06T19:59:11.384Z,94104.47
2023-07-06T20:01:39.943Z,94103.28
2023-07-06T20:04:11.071Z,94108.09
2023-07-06T20:06:40.060Z,94110.00
2023-07-06T20:09:07.183Z,94106.06
2023-07-06T20:11:33.551Z,94111.91
2023-07-06T20:14:00.046Z,94104.59
2023-07-06T20:16:26.534Z,94114.22
2023-07-06T20:18:52.949Z,94122.44
2023-07-06T20:21:19.328Z,94118.75
2023-07-06T20:23:45.847Z,94115.41
2023-07-06T20:26:12.290Z,94113.06
2023-07-06T20:28:38.659Z,94111.56
2023-07-06T20:31:06.393Z,94117.50
2023-07-06T20:33:41.064Z,94118.78
2023-07-06T20:36:08.270Z,94119.41
2023-07-06T20:38:35.239Z,94124.25
2023-07-06T20:41:01.869Z,94122.94
2023-07-06T20:43:28.931Z,94132.84
2023-07-06T20:45:56.855Z,94128.84
2023-07-06T20:48:23.332Z,94133.78
2023-07-06T20:50:49.692Z,94136.59
2023-07-06T20:53:16.995Z,94134.03
2023-07-06T20:55:43.354Z,94132.50
2023-07-06T20:58:09.697Z,94143.34
2023-07-06T21:00:37.215Z,94143.00
2023-07-06T21:03:05.159Z,94143.59
2023-07-06T21:05:31.566Z,94151.41
2023-07-06T21:07:57.964Z,94150.47
2023-07-06T21:10:25.859Z,94153.44
2023-07-06T21:12:52.566Z,94142.69
2023-07-06T21:15:18.937Z,94150.28
2023-07-06T21:17:45.311Z,94152.34
2023-07-06T21:20:12.788Z,94150.28
2023-07-06T21:22:39.165Z,94156.00
2023-07-06T21:25:05.925Z,94156.94
2023-07-06T21:27:32.304Z,94158.41
2023-07-06T21:29:58.674Z,94155.53
2023-07-06T21:32:25.134Z,94155.25
2023-07-06T21:34:51.550Z,94159.63
2023-07-06T21:37:17.938Z,94156.97
2023-07-06T21:39:44.381Z,94156.47
2023-07-06T21:42:10.747Z,94152.66
2023-07-06T21:44:37.102Z,94161.81
2023-07-06T21:47:03.555Z,94158.31
2023-07-06T21:49:30.454Z,94158.75
2023-07-06T21:51:56.846Z,94106.13
2023-07-06T21:54:23.350Z,94165.22
2023-07-06T21:56:49.711Z,94166.72
2023-07-06T21:59:16.144Z,94157.75
2023-07-06T22:01:42.602Z,94159.13
2023-07-06T22:04:09.109Z,94156.31
2023-07-06T22:06:35.517Z,94149.81
2023-07-06T22:09:03.762Z,94163.78
2023-07-06T22:11:30.132Z,94160.56
2023-07-06T22:13:59.520Z,94162.22
2023-07-06T22:16:26.028Z,94152.56
2023-07-06T22:18:52.430Z,94158.66
2023-07-06T22:21:19.290Z,94159.97
2023-07-06T22:23:45.988Z,94162.88
2023-07-06T22:26:12.628Z,94164.94
2023-07-06T22:28:44.145Z,94161.28
2023-07-06T22:31:10.811Z,94162.16
2023-07-06T22:33:37.673Z,94153.22
2023-07-06T22:36:08.644Z,94152.06
2023-07-06T22:38:35.790Z,94160.25
2023-07-06T22:41:02.139Z,94159.50
2023-07-06T22:43:28.499Z,94161.38
2023-07-06T22:45:55.009Z,94157.69
2023-07-06T22:48:21.415Z,94157.38
2023-07-06T22:50:47.764Z,94162.47
2023-07-06T22:53:14.190Z,94165.94
2023-07-06T22:55:40.972Z,94170.41
2023-07-06T22:58:07.952Z,94160.31
2023-07-06T23:00:35.289Z,94164.56
2023-07-06T23:03:02.096Z,94157.25
2023-07-06T23:05:28.528Z,94162.13
2023-07-06T23:08:12.235Z,94161.63
2023-07-06T23:10:42.526Z,94164.91
2023-07-06T23:13:09.737Z,94167.38
2023-07-06T23:15:36.156Z,94170.44
2023-07-06T23:18:02.709Z,94172.44
2023-07-06T23:20:29.184Z,94162.97
2023-07-06T23:22:55.537Z,94176.69
2023-07-06T23:25:22.151Z,94174.66
2023-07-06T23:27:49.070Z,94166.25
2023-07-06T23:30:17.996Z,94173.19
2023-07-06T23:32:45.081Z,94173.34
2023-07-06T23:35:15.156Z,94174.22
2023-07-06T23:37:46.099Z,94173.63
2023-07-06T23:40:13.985Z,94170.44
2023-07-06T23:42:40.367Z,94173.88
2023-07-06T23:45:07.512Z,94174.50
2023-07-06T23:47:34.209Z,94178.13
2023-07-06T23:50:00.679Z,94174.53
2023-07-06T23:52:27.452Z,94178.97
2023-07-06T23:54:53.840Z,94178.59
2023-07-06T23:57:20.199Z,94180.84
2023-07-06T23:59:46.568Z,94174.41
